sensor_id;sensor_type;location;lat;lon;timestamp;P1;durP1;ratioP1;P2;durP2;ratioP2
73452;SDS011;61687;56.232;43.854;2022-10-31T00:02:07;9.40;;;4.55;;
73452;SDS011;61687;56.232;43.854;2022-10-31T00:04:33;6.93;;;4.70;;
73452;SDS011;61687;56.232;43.854;2022-10-31T00:06:59;7.00;;;4.32;;
73452;SDS011;61687;56.232;43.854;2022-10-31T00:09:24;10.07;;;4.47;;
73452;SDS011;61687;56.232;43.854;2022-10-31T00:11:50;9.07;;;4.47;;
73452;SDS011;61687;56.232;43.854;2022-10-31T00:14:16;7.35;;;4.25;;
73452;SDS011;61687;56.232;43.854;2022-10-31T00:16:42;5.70;;;4.13;;
73452;SDS011;61687;56.232;43.854;2022-10-31T00:19:08;5.40;;;3.70;;
73452;SDS011;61687;56.232;43.854;2022-10-31T00:21:34;4.95;;;3.58;;
73452;SDS011;61687;56.232;43.854;2022-10-31T00:24:01;5.88;;;3.92;;
73452;SDS011;61687;56.232;43.854;2022-10-31T00:26:28;10.43;;;4.23;;
73452;SDS011;61687;56.232;43.854;2022-10-31T00:28:55;5.45;;;3.50;;
73452;SDS011;61687;56.232;43.854;2022-10-31T00:31:21;7.15;;;4.00;;
73452;SDS011;61687;56.232;43.854;2022-10-31T00:33:48;4.75;;;3.63;;
73452;SDS011;61687;56.232;43.854;2022-10-31T00:36:17;5.13;;;3.95;;
73452;SDS011;61687;56.232;43.854;2022-10-31T00:38:45;6.47;;;4.00;;
73452;SDS011;61687;56.232;43.854;2022-10-31T00:41:12;5.80;;;3.50;;
73452;SDS011;61687;56.232;43.854;2022-10-31T00:43:40;6.38;;;5.07;;
73452;SDS011;61687;56.232;43.854;2022-10-31T00:46:08;5.32;;;3.67;;
73452;SDS011;61687;56.232;43.854;2022-10-31T00:48:34;7.15;;;4.80;;
73452;SDS011;61687;56.232;43.854;2022-10-31T00:51:00;7.47;;;4.20;;
73452;SDS011;61687;56.232;43.854;2022-10-31T00:53:26;5.90;;;4.43;;
73452;SDS011;61687;56.232;43.854;2022-10-31T00:55:52;7.20;;;4.45;;
73452;SDS011;61687;56.232;43.854;2022-10-31T00:58:18;7.93;;;4.97;;
73452;SDS011;61687;56.232;43.854;2022-10-31T01:00:46;6.28;;;4.00;;
73452;SDS011;61687;56.232;43.854;2022-10-31T01:03:24;7.40;;;4.45;;
73452;SDS011;61687;56.232;43.854;2022-10-31T01:05:55;7.65;;;4.70;;
73452;SDS011;61687;56.232;43.854;2022-10-31T01:08:23;7.78;;;5.00;;
73452;SDS011;61687;56.232;43.854;2022-10-31T01:11:13;8.00;;;4.47;;
73452;SDS011;61687;56.232;43.854;2022-10-31T01:13:42;9.52;;;5.10;;
73452;SDS011;61687;56.232;43.854;2022-10-31T01:16:11;6.28;;;4.28;;
73452;SDS011;61687;56.232;43.854;2022-10-31T01:18:39;7.72;;;4.07;;
73452;SDS011;61687;56.232;43.854;2022-10-31T01:21:12;9.75;;;4.03;;
73452;SDS011;61687;56.232;43.854;2022-10-31T01:23:40;7.07;;;4.70;;
73452;SDS011;61687;56.232;43.854;2022-10-31T01:26:13;5.47;;;3.33;;
73452;SDS011;61687;56.232;43.854;2022-10-31T01:31:16;6.85;;;4.38;;
73452;SDS011;61687;56.232;43.854;2022-10-31T01:33:43;5.97;;;3.88;;
73452;SDS011;61687;56.232;43.854;2022-10-31T01:38:56;8.57;;;4.78;;
73452;SDS011;61687;56.232;43.854;2022-10-31T01:41:26;6.22;;;4.28;;
73452;SDS011;61687;56.232;43.854;2022-10-31T01:43:58;5.78;;;3.65;;
73452;SDS011;61687;56.232;43.854;2022-10-31T01:49:11;5.50;;;3.63;;
73452;SDS011;61687;56.232;43.854;2022-10-31T01:52:07;5.35;;;3.83;;
73452;SDS011;61687;56.232;43.854;2022-10-31T01:54:57;6.57;;;3.40;;
73452;SDS011;61687;56.232;43.854;2022-10-31T01:57:30;7.53;;;3.97;;
73452;SDS011;61687;56.232;43.854;2022-10-31T02:00:01;5.57;;;3.38;;
73452;SDS011;61687;56.232;43.854;2022-10-31T02:02:39;5.72;;;3.08;;
73452;SDS011;61687;56.232;43.854;2022-10-31T02:05:06;5.88;;;3.25;;
73452;SDS011;61687;56.232;43.854;2022-10-31T02:08:23;5.68;;;3.67;;
73452;SDS011;61687;56.232;43.854;2022-10-31T02:10:31;6.05;;;4.05;;
73452;SDS011;61687;56.232;43.854;2022-10-31T02:13:00;5.88;;;3.58;;
73452;SDS011;61687;56.232;43.854;2022-10-31T02:15:29;5.20;;;3.58;;
73452;SDS011;61687;56.232;43.854;2022-10-31T02:17:57;5.78;;;3.65;;
73452;SDS011;61687;56.232;43.854;2022-10-31T02:20:24;7.35;;;4.13;;
73452;SDS011;61687;56.232;43.854;2022-10-31T02:34:01;12.55;;;6.20;;
73452;SDS011;61687;56.232;43.854;2022-10-31T02:36:55;11.82;;;6.07;;
73452;SDS011;61687;56.232;43.854;2022-10-31T02:39:33;14.93;;;6.53;;
73452;SDS011;61687;56.232;43.854;2022-10-31T02:42:16;11.70;;;6.10;;
73452;SDS011;61687;56.232;43.854;2022-10-31T02:47:51;8.13;;;5.22;;
73452;SDS011;61687;56.232;43.854;2022-10-31T02:50:34;8.73;;;6.13;;
73452;SDS011;61687;56.232;43.854;2022-10-31T02:53:03;5.35;;;4.03;;
73452;SDS011;61687;56.232;43.854;2022-10-31T02:58:08;6.53;;;3.67;;
73452;SDS011;61687;56.232;43.854;2022-10-31T03:03:36;7.05;;;3.83;;
73452;SDS011;61687;56.232;43.854;2022-10-31T03:06:30;8.50;;;4.40;;
73452;SDS011;61687;56.232;43.854;2022-10-31T03:09:11;7.63;;;4.28;;
73452;SDS011;61687;56.232;43.854;2022-10-31T03:11:58;7.50;;;4.55;;
73452;SDS011;61687;56.232;43.854;2022-10-31T03:14:40;7.60;;;4.72;;
73452;SDS011;61687;56.232;43.854;2022-10-31T03:20:01;7.43;;;4.80;;
73452;SDS011;61687;56.232;43.854;2022-10-31T03:22:31;8.10;;;4.80;;
73452;SDS011;61687;56.232;43.854;2022-10-31T03:25:00;7.95;;;5.07;;
73452;SDS011;61687;56.232;43.854;2022-10-31T03:27:31;8.57;;;4.55;;
73452;SDS011;61687;56.232;43.854;2022-10-31T03:30:02;7.15;;;5.00;;
73452;SDS011;61687;56.232;43.854;2022-10-31T03:32:37;7.20;;;4.18;;
73452;SDS011;61687;56.232;43.854;2022-10-31T03:35:11;8.10;;;5.05;;
73452;SDS011;61687;56.232;43.854;2022-10-31T03:37:39;9.77;;;5.35;;
73452;SDS011;61687;56.232;43.854;2022-10-31T03:40:12;9.45;;;5.18;;
73452;SDS011;61687;56.232;43.854;2022-10-31T03:42:41;8.65;;;5.28;;
73452;SDS011;61687;56.232;43.854;2022-10-31T03:45:20;10.52;;;5.55;;
73452;SDS011;61687;56.232;43.854;2022-10-31T03:47:49;9.88;;;4.90;;
73452;SDS011;61687;56.232;43.854;2022-10-31T03:50:17;7.85;;;4.78;;
73452;SDS011;61687;56.232;43.854;2022-10-31T03:52:49;7.88;;;4.72;;
73452;SDS011;61687;56.232;43.854;2022-10-31T03:56:05;8.80;;;4.38;;
73452;SDS011;61687;56.232;43.854;2022-10-31T03:58:19;9.02;;;5.10;;
73452;SDS011;61687;56.232;43.854;2022-10-31T04:00:52;8.05;;;4.75;;
73452;SDS011;61687;56.232;43.854;2022-10-31T04:03:31;7.55;;;4.35;;
73452;SDS011;61687;56.232;43.854;2022-10-31T04:06:04;11.30;;;4.22;;
73452;SDS011;61687;56.232;43.854;2022-10-31T04:08:37;8.77;;;4.57;;
73452;SDS011;61687;56.232;43.854;2022-10-31T04:11:11;6.63;;;4.68;;
73452;SDS011;61687;56.232;43.854;2022-10-31T04:13:46;6.93;;;4.63;;
73452;SDS011;61687;56.232;43.854;2022-10-31T04:16:19;9.15;;;4.78;;
73452;SDS011;61687;56.232;43.854;2022-10-31T04:18:47;8.68;;;4.57;;
73452;SDS011;61687;56.232;43.854;2022-10-31T04:21:15;6.60;;;3.90;;
73452;SDS011;61687;56.232;43.854;2022-10-31T04:23:42;6.38;;;4.22;;
73452;SDS011;61687;56.232;43.854;2022-10-31T04:26:20;7.55;;;4.13;;
73452;SDS011;61687;56.232;43.854;2022-10-31T04:28:46;7.10;;;3.83;;
73452;SDS011;61687;56.232;43.854;2022-10-31T04:31:12;6.40;;;4.00;;
73452;SDS011;61687;56.232;43.854;2022-10-31T04:33:39;5.55;;;3.30;;
73452;SDS011;61687;56.232;43.854;2022-10-31T04:36:05;7.50;;;3.72;;
73452;SDS011;61687;56.232;43.854;2022-10-31T04:38:31;8.10;;;3.70;;
73452;SDS011;61687;56.232;43.854;2022-10-31T04:40:58;5.22;;;3.90;;
73452;SDS011;61687;56.232;43.854;2022-10-31T04:43:44;6.35;;;3.78;;
73452;SDS011;61687;56.232;43.854;2022-10-31T04:46:10;9.43;;;4.53;;
73452;SDS011;61687;56.232;43.854;2022-10-31T04:48:36;6.05;;;3.22;;
73452;SDS011;61687;56.232;43.854;2022-10-31T04:51:04;6.03;;;4.35;;
73452;SDS011;61687;56.232;43.854;2022-10-31T04:53:31;7.28;;;4.18;;
73452;SDS011;61687;56.232;43.854;2022-10-31T04:56:16;6.82;;;3.97;;
73452;SDS011;61687;56.232;43.854;2022-10-31T04:58:45;5.97;;;3.92;;
73452;SDS011;61687;56.232;43.854;2022-10-31T05:01:12;9.63;;;3.47;;
73452;SDS011;61687;56.232;43.854;2022-10-31T05:03:38;7.10;;;3.67;;
73452;SDS011;61687;56.232;43.854;2022-10-31T05:06:07;6.90;;;4.35;;
73452;SDS011;61687;56.232;43.854;2022-10-31T05:08:34;5.72;;;3.75;;
73452;SDS011;61687;56.232;43.854;2022-10-31T05:11:03;5.53;;;3.58;;
73452;SDS011;61687;56.232;43.854;2022-10-31T05:13:30;5.45;;;3.08;;
73452;SDS011;61687;56.232;43.854;2022-10-31T05:16:19;6.53;;;3.30;;
73452;SDS011;61687;56.232;43.854;2022-10-31T05:19:23;6.70;;;3.55;;
73452;SDS011;61687;56.232;43.854;2022-10-31T05:22:15;6.13;;;4.18;;
73452;SDS011;61687;56.232;43.854;2022-10-31T05:24:41;7.80;;;4.60;;
73452;SDS011;61687;56.232;43.854;2022-10-31T05:27:09;8.15;;;4.13;;
73452;SDS011;61687;56.232;43.854;2022-10-31T05:29:34;6.13;;;3.93;;
73452;SDS011;61687;56.232;43.854;2022-10-31T05:32:02;6.88;;;3.92;;
73452;SDS011;61687;56.232;43.854;2022-10-31T05:34:47;9.80;;;3.38;;
73452;SDS011;61687;56.232;43.854;2022-10-31T05:37:42;8.95;;;4.20;;
73452;SDS011;61687;56.232;43.854;2022-10-31T05:40:09;10.47;;;4.30;;
73452;SDS011;61687;56.232;43.854;2022-10-31T05:42:40;8.98;;;4.20;;
73452;SDS011;61687;56.232;43.854;2022-10-31T05:45:08;10.55;;;4.15;;
73452;SDS011;61687;56.232;43.854;2022-10-31T05:47:51;12.82;;;4.45;;
73452;SDS011;61687;56.232;43.854;2022-10-31T05:50:41;15.20;;;4.95;;
73452;SDS011;61687;56.232;43.854;2022-10-31T05:53:09;9.33;;;3.43;;
73452;SDS011;61687;56.232;43.854;2022-10-31T05:55:37;10.77;;;4.93;;
73452;SDS011;61687;56.232;43.854;2022-10-31T05:58:23;13.13;;;4.38;;
73452;SDS011;61687;56.232;43.854;2022-10-31T06:00:57;16.55;;;4.88;;
73452;SDS011;61687;56.232;43.854;2022-10-31T06:03:24;9.38;;;5.05;;
73452;SDS011;61687;56.232;43.854;2022-10-31T06:06:01;15.63;;;4.97;;
73452;SDS011;61687;56.232;43.854;2022-10-31T06:08:40;11.82;;;4.63;;
73452;SDS011;61687;56.232;43.854;2022-10-31T06:11:12;9.60;;;4.70;;
73452;SDS011;61687;56.232;43.854;2022-10-31T06:13:56;11.00;;;5.63;;
73452;SDS011;61687;56.232;43.854;2022-10-31T06:16:28;10.98;;;4.57;;
73452;SDS011;61687;56.232;43.854;2022-10-31T06:18:59;11.63;;;3.83;;
73452;SDS011;61687;56.232;43.854;2022-10-31T06:21:25;8.50;;;4.47;;
73452;SDS011;61687;56.232;43.854;2022-10-31T06:23:51;10.63;;;5.38;;
73452;SDS011;61687;56.232;43.854;2022-10-31T06:26:43;9.98;;;4.95;;
73452;SDS011;61687;56.232;43.854;2022-10-31T06:29:09;10.53;;;4.17;;
73452;SDS011;61687;56.232;43.854;2022-10-31T06:31:55;7.10;;;4.18;;
73452;SDS011;61687;56.232;43.854;2022-10-31T06:34:21;14.20;;;4.88;;
73452;SDS011;61687;56.232;43.854;2022-10-31T06:36:47;11.80;;;4.18;;
73452;SDS011;61687;56.232;43.854;2022-10-31T06:39:14;13.82;;;4.25;;
73452;SDS011;61687;56.232;43.854;2022-10-31T06:41:40;7.00;;;3.88;;
73452;SDS011;61687;56.232;43.854;2022-10-31T06:44:09;8.77;;;3.80;;
73452;SDS011;61687;56.232;43.854;2022-10-31T06:46:53;15.10;;;4.38;;
73452;SDS011;61687;56.232;43.854;2022-10-31T06:49:42;8.68;;;3.35;;
73452;SDS011;61687;56.232;43.854;2022-10-31T06:52:12;10.40;;;4.60;;
73452;SDS011;61687;56.232;43.854;2022-10-31T06:54:38;6.32;;;3.50;;
73452;SDS011;61687;56.232;43.854;2022-10-31T06:57:04;7.35;;;3.92;;
73452;SDS011;61687;56.232;43.854;2022-10-31T06:59:30;9.07;;;4.20;;
73452;SDS011;61687;56.232;43.854;2022-10-31T07:02:25;9.65;;;4.82;;
73452;SDS011;61687;56.232;43.854;2022-10-31T07:04:51;10.90;;;5.13;;
73452;SDS011;61687;56.232;43.854;2022-10-31T07:07:17;5.30;;;3.15;;
73452;SDS011;61687;56.232;43.854;2022-10-31T07:09:46;6.37;;;3.60;;
73452;SDS011;61687;56.232;43.854;2022-10-31T07:12:15;4.72;;;3.45;;
73452;SDS011;61687;56.232;43.854;2022-10-31T07:14:48;5.75;;;3.67;;
73452;SDS011;61687;56.232;43.854;2022-10-31T07:17:14;8.48;;;3.20;;
73452;SDS011;61687;56.232;43.854;2022-10-31T07:19:42;5.23;;;3.50;;
73452;SDS011;61687;56.232;43.854;2022-10-31T07:22:10;6.30;;;2.65;;
73452;SDS011;61687;56.232;43.854;2022-10-31T07:24:37;4.95;;;2.95;;
73452;SDS011;61687;56.232;43.854;2022-10-31T07:27:22;4.22;;;2.65;;
73452;SDS011;61687;56.232;43.854;2022-10-31T07:29:47;5.93;;;2.90;;
73452;SDS011;61687;56.232;43.854;2022-10-31T07:32:15;5.82;;;3.13;;
73452;SDS011;61687;56.232;43.854;2022-10-31T07:34:46;7.95;;;3.15;;
73452;SDS011;61687;56.232;43.854;2022-10-31T07:37:28;6.75;;;3.50;;
73452;SDS011;61687;56.232;43.854;2022-10-31T07:39:55;11.35;;;4.00;;
73452;SDS011;61687;56.232;43.854;2022-10-31T07:42:21;17.20;;;5.23;;
73452;SDS011;61687;56.232;43.854;2022-10-31T07:44:48;7.35;;;3.60;;
73452;SDS011;61687;56.232;43.854;2022-10-31T07:47:43;10.57;;;4.07;;
73452;SDS011;61687;56.232;43.854;2022-10-31T07:50:36;6.88;;;3.15;;
73452;SDS011;61687;56.232;43.854;2022-10-31T07:53:37;5.28;;;3.30;;
73452;SDS011;61687;56.232;43.854;2022-10-31T07:56:29;4.93;;;2.77;;
73452;SDS011;61687;56.232;43.854;2022-10-31T07:58:55;8.23;;;3.97;;
73452;SDS011;61687;56.232;43.854;2022-10-31T08:01:21;5.85;;;4.03;;
73452;SDS011;61687;56.232;43.854;2022-10-31T08:04:04;9.80;;;3.58;;
73452;SDS011;61687;56.232;43.854;2022-10-31T08:06:49;6.00;;;3.70;;
73452;SDS011;61687;56.232;43.854;2022-10-31T08:09:24;6.55;;;4.10;;
73452;SDS011;61687;56.232;43.854;2022-10-31T08:11:52;5.93;;;4.05;;
73452;SDS011;61687;56.232;43.854;2022-10-31T08:14:18;7.82;;;3.88;;
73452;SDS011;61687;56.232;43.854;2022-10-31T08:16:44;6.47;;;4.25;;
73452;SDS011;61687;56.232;43.854;2022-10-31T08:19:12;12.88;;;4.05;;
73452;SDS011;61687;56.232;43.854;2022-10-31T08:21:39;6.45;;;3.55;;
73452;SDS011;61687;56.232;43.854;2022-10-31T08:24:07;5.72;;;3.35;;
73452;SDS011;61687;56.232;43.854;2022-10-31T08:26:35;6.57;;;4.15;;
73452;SDS011;61687;56.232;43.854;2022-10-31T08:29:03;8.85;;;4.00;;
73452;SDS011;61687;56.232;43.854;2022-10-31T08:31:31;6.45;;;3.33;;
73452;SDS011;61687;56.232;43.854;2022-10-31T08:34:16;9.65;;;2.83;;
73452;SDS011;61687;56.232;43.854;2022-10-31T08:37:02;9.40;;;3.92;;
73452;SDS011;61687;56.232;43.854;2022-10-31T08:39:35;8.63;;;3.90;;
73452;SDS011;61687;56.232;43.854;2022-10-31T08:42:03;7.63;;;4.00;;
73452;SDS011;61687;56.232;43.854;2022-10-31T08:44:30;7.22;;;3.70;;
73452;SDS011;61687;56.232;43.854;2022-10-31T08:46:56;6.25;;;3.65;;
73452;SDS011;61687;56.232;43.854;2022-10-31T08:49:22;6.78;;;4.05;;
73452;SDS011;61687;56.232;43.854;2022-10-31T08:51:48;8.02;;;4.05;;
73452;SDS011;61687;56.232;43.854;2022-10-31T08:54:14;4.72;;;3.35;;
73452;SDS011;61687;56.232;43.854;2022-10-31T08:56:55;7.45;;;3.88;;
73452;SDS011;61687;56.232;43.854;2022-10-31T08:59:54;5.93;;;3.45;;
73452;SDS011;61687;56.232;43.854;2022-10-31T09:02:24;6.13;;;3.72;;
73452;SDS011;61687;56.232;43.854;2022-10-31T09:04:55;4.68;;;3.13;;
73452;SDS011;61687;56.232;43.854;2022-10-31T09:07:21;5.40;;;3.40;;
73452;SDS011;61687;56.232;43.854;2022-10-31T09:09:48;6.55;;;3.40;;
73452;SDS011;61687;56.232;43.854;2022-10-31T09:12:14;6.18;;;3.38;;
73452;SDS011;61687;56.232;43.854;2022-10-31T09:15:02;8.20;;;3.08;;
73452;SDS011;61687;56.232;43.854;2022-10-31T09:17:46;4.05;;;2.63;;
73452;SDS011;61687;56.232;43.854;2022-10-31T09:20:37;4.22;;;3.00;;
73452;SDS011;61687;56.232;43.854;2022-10-31T09:23:15;4.10;;;3.28;;
73452;SDS011;61687;56.232;43.854;2022-10-31T09:25:42;7.22;;;3.80;;
73452;SDS011;61687;56.232;43.854;2022-10-31T09:28:28;6.57;;;2.95;;
73452;SDS011;61687;56.232;43.854;2022-10-31T09:30:57;10.95;;;3.60;;
73452;SDS011;61687;56.232;43.854;2022-10-31T09:33:42;8.73;;;2.78;;
73452;SDS011;61687;56.232;43.854;2022-10-31T09:36:28;10.82;;;3.65;;
73452;SDS011;61687;56.232;43.854;2022-10-31T09:38:54;8.90;;;3.75;;
73452;SDS011;61687;56.232;43.854;2022-10-31T09:49:49;9.77;;;4.05;;
73452;SDS011;61687;56.232;43.854;2022-10-31T09:52:29;8.10;;;3.70;;
73452;SDS011;61687;56.232;43.854;2022-10-31T09:55:04;6.43;;;3.47;;
73452;SDS011;61687;56.232;43.854;2022-10-31T09:57:31;7.93;;;3.63;;
73452;SDS011;61687;56.232;43.854;2022-10-31T09:59:59;11.68;;;3.70;;
73452;SDS011;61687;56.232;43.854;2022-10-31T10:02:39;9.38;;;3.90;;
73452;SDS011;61687;56.232;43.854;2022-10-31T10:08:13;12.48;;;3.55;;
73452;SDS011;61687;56.232;43.854;2022-10-31T10:29:32;11.88;;;3.60;;
73452;SDS011;61687;56.232;43.854;2022-10-31T10:31:59;10.25;;;3.85;;
73452;SDS011;61687;56.232;43.854;2022-10-31T10:34:36;9.27;;;4.40;;
73452;SDS011;61687;56.232;43.854;2022-10-31T10:37:08;7.55;;;3.78;;
73452;SDS011;61687;56.232;43.854;2022-10-31T10:39:47;11.27;;;3.92;;
73452;SDS011;61687;56.232;43.854;2022-10-31T10:42:16;9.30;;;3.80;;
73452;SDS011;61687;56.232;43.854;2022-10-31T10:45:14;7.63;;;3.58;;
73452;SDS011;61687;56.232;43.854;2022-10-31T10:48:10;8.70;;;4.32;;
73452;SDS011;61687;56.232;43.854;2022-10-31T10:50:42;8.15;;;3.70;;
73452;SDS011;61687;56.232;43.854;2022-10-31T10:58:26;7.83;;;3.80;;
73452;SDS011;61687;56.232;43.854;2022-10-31T11:00:52;5.55;;;3.53;;
73452;SDS011;61687;56.232;43.854;2022-10-31T11:03:20;12.63;;;4.13;;
73452;SDS011;61687;56.232;43.854;2022-10-31T11:08:25;6.85;;;3.85;;
73452;SDS011;61687;56.232;43.854;2022-10-31T11:13:42;7.28;;;3.70;;
73452;SDS011;61687;56.232;43.854;2022-10-31T11:16:30;7.60;;;4.50;;
73452;SDS011;61687;56.232;43.854;2022-10-31T11:19:07;7.50;;;4.53;;
73452;SDS011;61687;56.232;43.854;2022-10-31T11:21:45;10.95;;;4.00;;
73452;SDS011;61687;56.232;43.854;2022-10-31T11:24:13;6.00;;;4.32;;
73452;SDS011;61687;56.232;43.854;2022-10-31T11:26:42;10.15;;;5.10;;
73452;SDS011;61687;56.232;43.854;2022-10-31T11:29:25;7.85;;;4.10;;
73452;SDS011;61687;56.232;43.854;2022-10-31T11:31:52;11.25;;;3.75;;
73452;SDS011;61687;56.232;43.854;2022-10-31T11:34:26;5.85;;;3.60;;
73452;SDS011;61687;56.232;43.854;2022-10-31T11:36:53;6.25;;;3.65;;
73452;SDS011;61687;56.232;43.854;2022-10-31T11:39:21;7.80;;;4.25;;
73452;SDS011;61687;56.232;43.854;2022-10-31T11:41:49;7.13;;;4.20;;
73452;SDS011;61687;56.232;43.854;2022-10-31T11:46:47;5.38;;;4.22;;
73452;SDS011;61687;56.232;43.854;2022-10-31T11:51:47;6.43;;;3.90;;
73452;SDS011;61687;56.232;43.854;2022-10-31T11:54:38;5.75;;;4.00;;
73452;SDS011;61687;56.232;43.854;2022-10-31T11:57:31;7.97;;;3.90;;
73452;SDS011;61687;56.232;43.854;2022-10-31T12:00:00;9.40;;;3.60;;
73452;SDS011;61687;56.232;43.854;2022-10-31T12:02:40;8.18;;;4.07;;
73452;SDS011;61687;56.232;43.854;2022-10-31T12:05:11;16.77;;;4.40;;
73452;SDS011;61687;56.232;43.854;2022-10-31T12:07:45;7.95;;;3.47;;
73452;SDS011;61687;56.232;43.854;2022-10-31T12:10:12;9.32;;;4.32;;
73452;SDS011;61687;56.232;43.854;2022-10-31T12:12:46;8.38;;;4.47;;
73452;SDS011;61687;56.232;43.854;2022-10-31T12:29:32;8.50;;;4.72;;
73452;SDS011;61687;56.232;43.854;2022-10-31T12:32:15;11.35;;;5.47;;
73452;SDS011;61687;56.232;43.854;2022-10-31T12:45:57;21.27;;;8.07;;
73452;SDS011;61687;56.232;43.854;2022-10-31T13:02:16;29.75;;;10.00;;
73452;SDS011;61687;56.232;43.854;2022-10-31T13:07:18;25.85;;;8.43;;
73452;SDS011;61687;56.232;43.854;2022-10-31T13:10:08;26.33;;;9.52;;
73452;SDS011;61687;56.232;43.854;2022-10-31T13:12:42;24.65;;;10.00;;
73452;SDS011;61687;56.232;43.854;2022-10-31T13:15:17;20.38;;;7.40;;
73452;SDS011;61687;56.232;43.854;2022-10-31T13:17:46;22.38;;;8.20;;
73452;SDS011;61687;56.232;43.854;2022-10-31T13:20:19;18.42;;;8.27;;
73452;SDS011;61687;56.232;43.854;2022-10-31T13:22:47;19.52;;;7.72;;
73452;SDS011;61687;56.232;43.854;2022-10-31T13:25:24;15.30;;;6.35;;
73452;SDS011;61687;56.232;43.854;2022-10-31T13:30:36;16.23;;;6.25;;
73452;SDS011;61687;56.232;43.854;2022-10-31T13:33:24;10.60;;;6.65;;
73452;SDS011;61687;56.232;43.854;2022-10-31T13:38:32;8.57;;;5.93;;
73452;SDS011;61687;56.232;43.854;2022-10-31T13:44:26;12.13;;;6.70;;
73452;SDS011;61687;56.232;43.854;2022-10-31T13:46:54;9.60;;;5.40;;
73452;SDS011;61687;56.232;43.854;2022-10-31T13:54:48;9.75;;;5.93;;
73452;SDS011;61687;56.232;43.854;2022-10-31T13:59:53;10.57;;;5.85;;
73452;SDS011;61687;56.232;43.854;2022-10-31T14:02:25;13.52;;;6.55;;
73452;SDS011;61687;56.232;43.854;2022-10-31T14:05:00;9.32;;;5.97;;
73452;SDS011;61687;56.232;43.854;2022-10-31T14:07:32;10.23;;;5.93;;
73452;SDS011;61687;56.232;43.854;2022-10-31T14:12:38;10.77;;;6.18;;
73452;SDS011;61687;56.232;43.854;2022-10-31T14:18:05;7.30;;;4.93;;
73452;SDS011;61687;56.232;43.854;2022-10-31T14:28:50;9.85;;;6.32;;
73452;SDS011;61687;56.232;43.854;2022-10-31T14:31:40;10.45;;;6.75;;
73452;SDS011;61687;56.232;43.854;2022-10-31T14:53:02;10.20;;;6.40;;
73452;SDS011;61687;56.232;43.854;2022-10-31T14:55:32;12.65;;;6.60;;
73452;SDS011;61687;56.232;43.854;2022-10-31T14:58:03;14.15;;;7.13;;
73452;SDS011;61687;56.232;43.854;2022-10-31T15:00:32;15.38;;;7.88;;
73452;SDS011;61687;56.232;43.854;2022-10-31T15:03:16;15.38;;;7.50;;
73452;SDS011;61687;56.232;43.854;2022-10-31T15:05:49;13.65;;;6.90;;
73452;SDS011;61687;56.232;43.854;2022-10-31T15:08:31;13.45;;;6.68;;
73452;SDS011;61687;56.232;43.854;2022-10-31T15:11:37;13.73;;;7.95;;
73452;SDS011;61687;56.232;43.854;2022-10-31T15:14:01;13.23;;;6.82;;
73452;SDS011;61687;56.232;43.854;2022-10-31T15:16:42;13.35;;;7.32;;
73452;SDS011;61687;56.232;43.854;2022-10-31T15:19:13;14.13;;;6.80;;
73452;SDS011;61687;56.232;43.854;2022-10-31T15:21:45;11.18;;;6.10;;
73452;SDS011;61687;56.232;43.854;2022-10-31T15:24:14;14.50;;;6.72;;
73452;SDS011;61687;56.232;43.854;2022-10-31T15:26:50;15.85;;;6.88;;
73452;SDS011;61687;56.232;43.854;2022-10-31T15:29:19;18.23;;;7.63;;
73452;SDS011;61687;56.232;43.854;2022-10-31T15:31:54;20.23;;;7.55;;
73452;SDS011;61687;56.232;43.854;2022-10-31T15:34:42;13.63;;;8.02;;
73452;SDS011;61687;56.232;43.854;2022-10-31T15:37:12;15.20;;;8.68;;
73452;SDS011;61687;56.232;43.854;2022-10-31T15:39:42;15.32;;;7.72;;
73452;SDS011;61687;56.232;43.854;2022-10-31T15:42:20;12.63;;;7.30;;
73452;SDS011;61687;56.232;43.854;2022-10-31T15:45:27;17.45;;;7.75;;
73452;SDS011;61687;56.232;43.854;2022-10-31T15:47:57;14.95;;;7.57;;
73452;SDS011;61687;56.232;43.854;2022-10-31T15:53:01;12.57;;;7.47;;
73452;SDS011;61687;56.232;43.854;2022-10-31T15:55:29;14.07;;;7.32;;
73452;SDS011;61687;56.232;43.854;2022-10-31T15:57:59;13.02;;;7.05;;
73452;SDS011;61687;56.232;43.854;2022-10-31T16:00:36;17.88;;;7.85;;
73452;SDS011;61687;56.232;43.854;2022-10-31T16:05:45;14.60;;;8.25;;
73452;SDS011;61687;56.232;43.854;2022-10-31T16:13:59;16.38;;;7.72;;
73452;SDS011;61687;56.232;43.854;2022-10-31T16:16:27;13.68;;;7.28;;
73452;SDS011;61687;56.232;43.854;2022-10-31T16:18:54;15.40;;;8.35;;
73452;SDS011;61687;56.232;43.854;2022-10-31T16:21:29;13.18;;;6.90;;
73452;SDS011;61687;56.232;43.854;2022-10-31T16:23:59;18.40;;;8.00;;
73452;SDS011;61687;56.232;43.854;2022-10-31T16:26:28;16.55;;;8.02;;
73452;SDS011;61687;56.232;43.854;2022-10-31T16:28:55;15.35;;;7.57;;
73452;SDS011;61687;56.232;43.854;2022-10-31T16:31:30;15.75;;;7.55;;
73452;SDS011;61687;56.232;43.854;2022-10-31T16:34:03;15.05;;;7.80;;
73452;SDS011;61687;56.232;43.854;2022-10-31T16:36:45;11.10;;;6.05;;
73452;SDS011;61687;56.232;43.854;2022-10-31T16:39:12;12.20;;;6.35;;
73452;SDS011;61687;56.232;43.854;2022-10-31T16:41:42;10.27;;;5.25;;
73452;SDS011;61687;56.232;43.854;2022-10-31T16:44:21;11.30;;;6.50;;
73452;SDS011;61687;56.232;43.854;2022-10-31T16:49:44;11.18;;;6.22;;
73452;SDS011;61687;56.232;43.854;2022-10-31T16:52:13;12.77;;;6.50;;
73452;SDS011;61687;56.232;43.854;2022-10-31T16:54:39;9.35;;;6.25;;
73452;SDS011;61687;56.232;43.854;2022-10-31T16:57:05;9.90;;;5.40;;
73452;SDS011;61687;56.232;43.854;2022-10-31T16:59:31;8.65;;;5.32;;
73452;SDS011;61687;56.232;43.854;2022-10-31T17:02:01;8.73;;;5.18;;
73452;SDS011;61687;56.232;43.854;2022-10-31T17:04:29;8.57;;;5.05;;
73452;SDS011;61687;56.232;43.854;2022-10-31T17:06:55;9.13;;;4.90;;
73452;SDS011;61687;56.232;43.854;2022-10-31T17:09:20;8.07;;;4.43;;
73452;SDS011;61687;56.232;43.854;2022-10-31T17:11:47;9.20;;;4.53;;
73452;SDS011;61687;56.232;43.854;2022-10-31T17:14:17;9.63;;;4.97;;
73452;SDS011;61687;56.232;43.854;2022-10-31T17:16:43;9.45;;;5.65;;
73452;SDS011;61687;56.232;43.854;2022-10-31T17:19:09;9.10;;;5.72;;
73452;SDS011;61687;56.232;43.854;2022-10-31T17:21:36;8.63;;;5.40;;
73452;SDS011;61687;56.232;43.854;2022-10-31T17:24:03;9.93;;;5.25;;
73452;SDS011;61687;56.232;43.854;2022-10-31T17:26:29;14.18;;;5.95;;
73452;SDS011;61687;56.232;43.854;2022-10-31T17:28:56;11.55;;;6.00;;
73452;SDS011;61687;56.232;43.854;2022-10-31T17:31:28;9.95;;;5.30;;
73452;SDS011;61687;56.232;43.854;2022-10-31T17:33:56;11.50;;;5.47;;
73452;SDS011;61687;56.232;43.854;2022-10-31T17:36:24;9.73;;;5.05;;
73452;SDS011;61687;56.232;43.854;2022-10-31T17:38:50;8.98;;;5.80;;
73452;SDS011;61687;56.232;43.854;2022-10-31T17:41:15;8.40;;;5.47;;
73452;SDS011;61687;56.232;43.854;2022-10-31T17:43:41;8.32;;;5.35;;
73452;SDS011;61687;56.232;43.854;2022-10-31T17:46:07;9.00;;;5.45;;
73452;SDS011;61687;56.232;43.854;2022-10-31T17:48:34;10.68;;;5.40;;
73452;SDS011;61687;56.232;43.854;2022-10-31T17:51:02;8.13;;;4.83;;
73452;SDS011;61687;56.232;43.854;2022-10-31T17:53:29;8.60;;;4.55;;
73452;SDS011;61687;56.232;43.854;2022-10-31T17:56:03;7.38;;;4.45;;
73452;SDS011;61687;56.232;43.854;2022-10-31T17:58:31;7.13;;;4.32;;
73452;SDS011;61687;56.232;43.854;2022-10-31T18:00:59;7.15;;;4.68;;
73452;SDS011;61687;56.232;43.854;2022-10-31T18:03:25;7.77;;;4.63;;
73452;SDS011;61687;56.232;43.854;2022-10-31T18:05:52;8.00;;;5.00;;